Time;durP1;ratioP1;P1;durP2;ratioP2;P2;SDS_P1;SDS_P2;PMS_P1;PMS_P2;Temp;Humidity;BMP_temperature;BMP_pressure;BME280_temperature;BME280_humidity;BME280_pressure;Samples;Min_cycle;Max_cycle;Signal;HPM_P1;HPM_P2
2023/08/23 00:00:12;;;;;;;3.40;2.90;;;;;;;25.18;100.00;100613.16;4978613;28;20043;-79
2023/08/23 00:02:37;;;;;;;1.65;1.52;;;;;;;25.47;100.00;100638.31;4986822;28;20533;-79
2023/08/23 00:05:03;;;;;;;1.10;1.02;;;;;;;25.17;100.00;100608.69;4986032;28;20070;-80
2023/08/23 00:07:29;;;;;;;3.85;3.50;;;;;;;24.62;100.00;100534.84;4986333;28;20406;-79
2023/08/23 00:09:54;;;;;;;2.42;2.17;;;;;;;25.26;100.00;100635.94;4982579;28;20070;-79
2023/08/23 00:12:20;;;;;;;2.30;2.10;;;;;;;25.12;100.00;100638.47;4979539;28;20046;-80
2023/08/23 00:14:45;;;;;;;3.50;3.22;;;;;;;24.83;100.00;100595.38;4980932;28;20629;-78
2023/08/23 00:17:11;;;;;;;2.15;1.98;;;;;;;24.75;100.00;100578.00;4984399;28;20145;-79
2023/08/23 00:19:36;;;;;;;1.63;1.52;;;;;;;25.00;100.00;100626.63;4986269;28;20057;-80
2023/08/23 00:22:05;;;;;;;0.95;0.82;;;;;;;24.37;100.00;100538.91;4984730;28;20030;-80
2023/08/23 00:24:31;;;;;;;2.47;2.28;;;;;;;24.88;100.00;100615.72;4985846;28;20686;-79
2023/08/23 00:26:56;;;;;;;2.35;2.15;;;;;;;24.78;100.00;100631.50;4975430;28;20038;-79
2023/08/23 00:29:22;;;;;;;2.55;2.17;;;;;;;24.51;100.00;100596.31;4986405;28;20118;-79
2023/08/23 00:31:48;;;;;;;2.30;2.17;;;;;;;23.99;100.00;100516.84;4988065;28;20046;-78
2023/08/23 00:34:13;;;;;;;2.38;2.15;;;;;;;24.53;100.00;100607.81;4989502;28;20053;-78
2023/08/23 00:36:39;;;;;;;2.45;1.17;;;;;;;24.29;100.00;100576.00;4989549;28;20051;-77
2023/08/23 00:39:04;;;;;;;4.80;3.65;;;;;;;24.19;100.00;100578.31;4988052;28;20038;-76
2023/08/23 00:41:30;;;;;;;2.88;2.25;;;;;;;23.94;100.00;100526.97;4989385;28;20030;-76
2023/08/23 00:43:55;;;;;;;1.55;1.45;;;;;;;23.86;100.00;100516.66;4986242;28;20100;-78
2023/08/23 00:46:21;;;;;;;1.98;1.85;;;;;;;24.51;100.00;100615.94;4989349;28;20046;-78
2023/08/23 00:48:49;;;;;;;2.85;2.65;;;;;;;23.77;100.00;100511.78;4989494;28;20092;-79
2023/08/23 00:51:15;;;;;;;1.27;0.95;;;;;;;24.16;100.00;100574.91;4988124;28;20038;-78
2023/08/23 00:53:41;;;;;;;7.68;1.75;;;;;;;23.87;100.00;100528.25;4987240;28;20030;-79
2023/08/23 00:56:07;;;;;;;4.57;2.72;;;;;;;24.30;100.00;100612.56;4988999;28;20069;-80
2023/08/23 00:58:33;;;;;;;2.05;1.77;;;;;;;23.97;100.00;100543.72;4987900;28;20433;-80
2023/08/23 01:00:59;;;;;;;2.33;2.13;;;;;;;24.06;100.00;100563.81;4989216;28;20884;-80
2023/08/23 01:03:25;;;;;;;5.38;2.60;;;;;;;24.02;100.00;100535.44;4989407;28;20050;-79
2023/08/23 01:06:15;;;;;;;1.35;1.25;;;;;;;24.46;100.00;100611.75;4989339;28;20121;-79
2023/08/23 01:09:18;;;;;;;4.00;3.65;;;;;;;24.41;100.00;100620.06;4979482;28;20054;-79
2023/08/23 01:12:18;;;;;;;2.40;2.20;;;;;;;24.41;100.00;100617.38;4981653;28;20509;-79
2023/08/23 01:15:07;;;;;;;2.05;1.90;;;;;;;24.17;100.00;100590.94;4981591;28;20413;-80
2023/08/23 01:17:41;;;;;;;0.77;0.75;;;;;;;23.69;100.00;100538.06;4987836;28;20121;-79
2023/08/23 01:20:09;;;;;;;1.85;1.70;;;;;;;24.27;100.00;100623.47;4988670;28;20477;-79
2023/08/23 01:22:38;;;;;;;1.40;1.17;;;;;;;24.17;100.00;100603.47;4982963;28;20070;-79
2023/08/23 01:25:04;;;;;;;1.70;1.48;;;;;;;24.28;100.00;100618.97;4988575;28;20054;-77
2023/08/23 01:27:32;;;;;;;3.03;2.83;;;;;;;23.90;100.00;100563.78;4988660;28;20046;-80
2023/08/23 01:29:58;;;;;;;1.52;1.42;;;;;;;23.84;100.00;100549.84;4988837;28;20117;-78
2023/08/23 01:32:48;;;;;;;6.00;2.60;;;;;;;24.30;100.00;100611.72;4989058;28;20030;-78
2023/08/23 01:35:46;;;;;;;4.00;3.38;;;;;;;24.18;100.00;100606.06;4985165;28;20715;-78
2023/08/23 01:38:16;;;;;;;2.33;1.88;;;;;;;23.67;100.00;100524.78;4978984;28;20046;-80
2023/08/23 01:40:43;;;;;;;1.27;1.13;;;;;;;24.12;100.00;100614.44;4987274;28;20077;-78
2023/08/23 01:43:08;;;;;;;1.30;1.20;;;;;;;23.48;100.00;100503.41;4988336;28;20098;-79
2023/08/23 01:45:34;;;;;;;1.75;1.60;;;;;;;23.32;100.00;100487.31;4987997;28;20534;-78
2023/08/23 01:47:59;;;;;;;2.25;1.70;;;;;;;23.63;100.00;100523.22;4988532;28;20709;-79
2023/08/23 01:50:25;;;;;;;1.48;1.38;;;;;;;24.17;100.00;100607.03;4984316;28;20034;-77
2023/08/23 01:52:50;;;;;;;3.78;2.50;;;;;;;23.89;100.00;100556.69;4985143;28;20042;-78
2023/08/23 01:55:17;;;;;;;2.95;1.73;;;;;;;23.61;100.00;100506.34;4984558;28;20055;-79
2023/08/23 01:57:44;;;;;;;1.60;1.50;;;;;;;24.09;100.00;100585.13;4988729;28;20414;-78
2023/08/23 02:00:10;;;;;;;3.42;3.13;;;;;;;23.79;100.00;100536.69;4987476;28;20053;-76
2023/08/23 02:02:36;;;;;;;2.47;2.00;;;;;;;23.63;100.00;100504.44;4988083;28;20544;-78
2023/08/23 02:05:01;;;;;;;2.65;2.45;;;;;;;24.17;100.00;100611.53;4981133;28;20050;-78
2023/08/23 02:07:28;;;;;;;0.57;0.57;;;;;;;23.66;100.00;100517.69;4987680;28;20513;-78
2023/08/23 02:09:54;;;;;;;2.03;1.90;;;;;;;23.62;100.00;100507.19;4985710;28;20046;-78
2023/08/23 02:12:19;;;;;;;7.93;4.13;;;;;;;24.14;100.00;100604.50;4988027;28;20840;-79
2023/08/23 02:14:45;;;;;;;1.10;1.00;;;;;;;23.99;100.00;100589.22;4987542;28;20398;-80
2023/08/23 02:17:10;;;;;;;1.83;1.60;;;;;;;24.23;100.00;100617.44;4983769;28;20037;-79
2023/08/23 02:19:35;;;;;;;1.02;0.95;;;;;;;23.53;100.00;100525.50;4977653;28;20043;-80
2023/08/23 02:22:01;;;;;;;2.13;1.92;;;;;;;24.00;100.00;100596.34;4984656;28;20047;-78
2023/08/23 02:24:26;;;;;;;2.97;2.78;;;;;;;23.93;100.00;100598.47;4988586;28;20046;-80
2023/08/23 02:26:52;;;;;;;3.03;2.28;;;;;;;23.99;100.00;100598.13;4987342;28;20413;-78
2023/08/23 02:29:17;;;;;;;1.55;1.17;;;;;;;24.15;100.00;100624.16;4987517;28;20030;-79
2023/08/23 02:31:43;;;;;;;3.85;1.75;;;;;;;23.54;100.00;100518.31;4982851;28;20039;-79
2023/08/23 02:34:08;;;;;;;9.40;2.25;;;;;;;23.56;100.00;100497.69;4978333;28;20509;-79
2023/08/23 02:36:34;;;;;;;3.42;2.90;;;;;;;24.10;100.00;100597.56;4983986;28;20038;-80
2023/08/23 02:38:59;;;;;;;2.75;2.45;;;;;;;24.02;100.00;100597.09;4987173;28;23538;-80
2023/08/23 02:41:25;;;;;;;1.45;1.35;;;;;;;23.52;100.00;100523.75;4987886;28;20144;-80
2023/08/23 02:43:50;;;;;;;2.40;2.20;;;;;;;24.27;100.00;100619.94;5002495;28;20054;-76
2023/08/23 02:46:16;;;;;;;1.63;1.52;;;;;;;23.69;100.00;100540.75;4995761;28;20053;-77
2023/08/23 02:48:41;;;;;;;2.85;2.65;;;;;;;23.96;100.00;100617.06;4992105;28;20050;-76
2023/08/23 02:51:07;;;;;;;0.45;0.45;;;;;;;23.97;100.00;100620.59;4988884;28;20057;-79
2023/08/23 02:53:32;;;;;;;1.42;1.33;;;;;;;23.82;100.00;100616.06;4984218;28;20501;-79
2023/08/23 02:55:58;;;;;;;1.88;1.50;;;;;;;23.25;100.00;100523.38;4984898;28;20050;-76
2023/08/23 02:58:23;;;;;;;2.75;2.55;;;;;;;23.91;100.00;100596.81;4985737;28;20077;-77
2023/08/23 03:00:49;;;;;;;1.92;1.83;;;;;;;23.94;100.00;100613.59;4983904;28;20073;-79
2023/08/23 03:03:14;;;;;;;5.93;3.58;;;;;;;23.92;100.00;100612.81;4986525;28;20528;-78
2023/08/23 03:05:40;;;;;;;3.20;2.97;;;;;;;23.70;100.00;100580.03;4987572;28;20041;-79
2023/08/23 03:08:05;;;;;;;1.70;1.27;;;;;;;23.75;100.00;100600.28;4986571;28;20054;-79
2023/08/23 03:10:31;;;;;;;2.30;2.10;;;;;;;23.65;100.00;100585.63;4984583;28;20093;-78
2023/08/23 03:12:56;;;;;;;1.00;0.98;;;;;;;22.94;100.00;100483.88;4986456;28;20120;-79
2023/08/23 03:15:22;;;;;;;2.75;2.28;;;;;;;23.14;100.00;100509.66;4979248;28;20262;-79
2023/08/23 03:17:47;;;;;;;3.03;1.27;;;;;;;23.06;100.00;100503.81;4986349;28;20057;-81
2023/08/23 03:20:12;;;;;;;2.00;1.75;;;;;;;23.61;100.00;100578.69;4987559;28;20026;-78
2023/08/23 03:22:38;;;;;;;0.95;0.68;;;;;;;23.11;100.00;100500.00;4982375;28;20493;-80
2023/08/23 03:25:04;;;;;;;2.22;2.03;;;;;;;23.17;100.00;100505.00;5017213;28;20129;-80
2023/08/23 03:27:29;;;;;;;3.53;2.75;;;;;;;23.66;100.00;100591.84;4985072;28;20046;-79
2023/08/23 03:29:55;;;;;;;2.00;1.80;;;;;;;23.23;100.00;100506.53;4984486;28;20542;-79
2023/08/23 03:32:20;;;;;;;1.50;1.40;;;;;;;23.73;100.00;100607.50;4987017;28;20026;-79
2023/08/23 03:34:46;;;;;;;2.28;2.08;;;;;;;23.05;100.00;100510.13;4986108;28;20042;-78
2023/08/23 03:37:11;;;;;;;0.98;0.88;;;;;;;23.78;100.00;100604.63;4986329;28;20054;-78
2023/08/23 03:39:37;;;;;;;9.68;3.35;;;;;;;23.91;100.00;100608.41;4986145;28;20405;-80
2023/08/23 03:42:03;;;;;;;1.75;1.58;;;;;;;23.77;100.00;100585.00;4982302;28;20050;-78
2023/08/23 03:44:29;;;;;;;1.70;1.58;;;;;;;23.67;100.00;100566.75;5012023;28;20026;-78
2023/08/23 03:46:57;;;;;;;4.15;2.95;;;;;;;24.01;100.00;100598.06;4985895;28;20057;-76
2023/08/23 03:49:23;;;;;;;0.57;0.50;;;;;;;24.00;100.00;100599.03;4978667;28;20035;-77
2023/08/23 03:51:48;;;;;;;2.85;2.22;;;;;;;23.58;100.00;100518.09;4984800;28;20039;-79
2023/08/23 03:54:15;;;;;;;2.72;1.77;;;;;;;23.48;100.00;100492.72;4985766;28;20572;-79
2023/08/23 03:56:40;;;;;;;9.00;2.33;;;;;;;24.13;100.00;100604.59;4985677;28;20046;-77
2023/08/23 03:59:06;;;;;;;4.20;1.85;;;;;;;24.06;100.00;100579.06;4985875;28;20092;-79
2023/08/23 04:01:31;;;;;;;2.67;1.98;;;;;;;24.09;100.00;100579.78;4986516;28;20093;-77
2023/08/23 04:03:57;;;;;;;1.30;0.88;;;;;;;23.59;100.00;100494.84;4984870;28;20045;-79
2023/08/23 04:06:22;;;;;;;1.65;1.33;;;;;;;23.98;100.00;100584.84;4990077;28;20042;-79
2023/08/23 04:08:48;;;;;;;2.20;2.00;;;;;;;23.65;100.00;100505.25;4989834;28;20037;-78
2023/08/23 04:11:13;;;;;;;1.02;0.95;;;;;;;23.64;100.00;100503.50;4983667;28;20045;-79
2023/08/23 04:13:39;;;;;;;0.93;0.60;;;;;;;24.13;100.00;100583.13;4987483;28;20435;-78
2023/08/23 04:16:04;;;;;;;2.67;0.90;;;;;;;24.21;100.00;100603.22;4990087;28;20740;-77
2023/08/23 04:18:30;;;;;;;1.33;1.23;;;;;;;23.65;100.00;100517.75;4989716;28;20061;-79
2023/08/23 04:20:59;;;;;;;2.40;2.20;;;;;;;24.26;100.00;100605.66;4985891;28;20030;-78
2023/08/23 04:23:25;;;;;;;1.60;1.33;;;;;;;24.11;100.00;100571.63;4983544;28;20047;-77
2023/08/23 04:25:50;;;;;;;1.90;1.80;;;;;;;24.25;100.00;100611.09;4986221;28;20058;-78
2023/08/23 04:28:16;;;;;;;1.75;1.58;;;;;;;24.31;100.00;100613.47;4987065;28;20133;-78
2023/08/23 04:30:42;;;;;;;2.28;1.77;;;;;;;24.31;100.00;100608.09;4988252;28;20046;-77
2023/08/23 04:33:08;;;;;;;1.13;0.93;;;;;;;24.08;100.00;100595.94;4989494;28;20049;-76
2023/08/23 04:35:34;;;;;;;4.35;2.80;;;;;;;23.66;100.00;100522.16;4987300;28;20042;-76
2023/08/23 04:37:59;;;;;;;1.85;1.75;;;;;;;23.91;100.00;100568.19;4989059;28;20109;-74
2023/08/23 04:40:25;;;;;;;2.85;2.65;;;;;;;23.70;100.00;100523.75;4983997;28;20054;-75
2023/08/23 04:42:50;;;;;;;4.25;3.55;;;;;;;24.37;100.00;100630.09;4986168;28;20053;-74
2023/08/23 04:45:16;;;;;;;1.67;1.35;;;;;;;23.83;100.00;100529.34;4989250;28;20046;-76
2023/08/23 04:47:42;;;;;;;1.40;1.25;;;;;;;24.28;100.00;100611.81;4988973;28;20033;-76
2023/08/23 04:50:08;;;;;;;4.85;2.47;;;;;;;23.77;100.00;100518.00;4987945;28;20584;-76
2023/08/23 04:52:34;;;;;;;1.13;1.02;;;;;;;24.45;100.00;100627.00;4985575;28;20030;-76
2023/08/23 04:54:59;;;;;;;11.10;1.45;;;;;;;24.01;100.00;100528.38;4983804;28;20053;-76
2023/08/23 04:57:25;;;;;;;3.00;2.25;;;;;;;24.66;100.00;100640.22;4989172;28;20074;-77
2023/08/23 04:59:51;;;;;;;4.03;2.85;;;;;;;24.40;100.00;100580.78;4987311;28;20089;-76
2023/08/23 05:02:17;;;;;;;1.63;1.52;;;;;;;24.31;100.00;100559.81;4987438;28;20046;-79
2023/08/23 05:04:43;;;;;;;2.78;2.40;;;;;;;24.75;100.00;100642.41;4987799;28;20054;-77
2023/08/23 05:07:09;;;;;;;0.90;0.85;;;;;;;24.83;100.00;100637.47;4984387;28;20035;-76
2023/08/23 05:09:34;;;;;;;2.00;1.83;;;;;;;24.70;100.00;100622.97;4983295;28;20834;-76
2023/08/23 05:12:00;;;;;;;3.03;2.67;;;;;;;25.00;100.00;100648.09;4988552;28;20061;-75
2023/08/23 05:14:25;;;;;;;1.02;0.93;;;;;;;25.11;100.00;100644.81;4988906;28;20733;-76
2023/08/23 05:16:51;;;;;;;3.33;3.08;;;;;;;25.17;100.00;100640.91;4985009;28;20050;-76
2023/08/23 05:19:16;;;;;;;1.55;1.42;;;;;;;24.70;100.00;100543.34;4988891;28;20057;-75
2023/08/23 05:21:41;;;;;;;1.17;1.05;;;;;;;24.91;100.00;100552.00;4985286;28;20058;-76
2023/08/23 05:24:07;;;;;;;2.42;2.22;;;;;;;25.26;100.00;100584.00;4988024;28;20093;-76
2023/08/23 05:26:32;;;;;;;3.70;2.90;;;;;;;25.94;100.00;100653.44;4986666;28;20034;-76
2023/08/23 05:28:58;;;;;;;5.60;3.72;;;;;;;26.02;100.00;100613.53;4989893;28;20117;-76
2023/08/23 05:31:23;;;;;;;1.92;1.20;;;;;;;26.97;100.00;100644.34;4979838;28;20097;-76
2023/08/23 05:33:49;;;;;;;1.10;1.10;;;;;;;27.71;92.98;100650.31;4984721;28;20053;-75
2023/08/23 05:36:14;;;;;;;3.00;2.50;;;;;;;28.21;89.36;100651.34;4974985;28;20062;-75
2023/08/23 05:38:40;;;;;;;2.20;2.00;;;;;;;27.67;86.77;100541.78;4978793;28;20037;-76
2023/08/23 05:41:05;;;;;;;0.82;0.68;;;;;;;28.67;78.43;100639.16;4985176;28;20049;-77
2023/08/23 05:43:31;;;;;;;7.00;2.67;;;;;;;28.56;79.04;100591.31;5014927;28;20544;-77
2023/08/23 05:45:57;;;;;;;3.55;3.13;;;;;;;28.16;77.31;100559.06;4980016;28;20088;-78
2023/08/23 05:48:23;;;;;;;2.95;2.35;;;;;;;29.00;73.97;100652.91;4985703;28;20066;-76
2023/08/23 05:50:49;;;;;;;2.85;2.30;;;;;;;29.23;68.72;100572.00;4980556;28;20038;-76
2023/08/23 05:53:19;;;;;;;2.35;1.70;;;;;;;29.58;69.31;100647.72;4983762;28;20075;-75
2023/08/23 05:55:48;;;;;;;30.85;4.15;;;;;;;29.13;68.09;100565.56;4985637;28;20050;-76
2023/08/23 05:58:18;;;;;;;1.98;1.73;;;;;;;29.53;68.47;100627.44;4986181;28;20057;-76
2023/08/23 06:00:44;;;;;;;1.25;1.13;;;;;;;30.37;63.58;100617.31;4985533;28;20038;-76
2023/08/23 06:03:10;;;;;;;5.38;2.10;;;;;;;31.06;60.44;100606.31;4981990;28;20544;-75
2023/08/23 06:05:35;;;;;;;1.40;1.25;;;;;;;29.76;60.85;100561.63;4985211;28;20034;-75
2023/08/23 06:08:03;;;;;;;2.63;2.42;;;;;;;31.61;57.86;100639.66;4987523;28;20413;-75
2023/08/23 06:10:29;;;;;;;1.13;1.08;;;;;;;31.64;57.88;100589.72;4985622;28;20189;-75
2023/08/23 06:12:54;;;;;;;2.38;2.08;;;;;;;31.64;55.89;100568.84;4987157;28;20038;-77
2023/08/23 06:15:20;;;;;;;0.75;0.75;;;;;;;31.55;54.99;100559.66;4988298;28;20125;-76
2023/08/23 06:17:45;;;;;;;1.25;1.15;;;;;;;32.10;54.05;100615.59;4979059;28;20065;-77
2023/08/23 06:20:11;;;;;;;0.85;0.82;;;;;;;31.04;54.22;100578.47;4986701;28;20100;-76
2023/08/23 06:22:37;;;;;;;1.83;1.67;;;;;;;31.22;54.38;100639.28;5016005;28;20400;-76
2023/08/23 06:25:05;;;;;;;1.15;1.05;;;;;;;31.76;53.28;100640.19;4986480;28;20104;-75
2023/08/23 06:27:30;;;;;;;3.25;2.95;;;;;;;31.62;53.13;100643.25;4986716;28;20038;-78
2023/08/23 06:29:56;;;;;;;2.42;1.85;;;;;;;31.58;53.47;100641.78;4986446;28;20049;-75
2023/08/23 06:32:25;;;;;;;1.10;0.80;;;;;;;31.27;52.72;100562.97;4983176;28;20041;-77
2023/08/23 06:34:50;;;;;;;1.73;1.52;;;;;;;32.06;52.48;100650.31;4986982;28;20052;-76
2023/08/23 06:37:16;;;;;;;4.78;3.92;;;;;;;31.80;53.01;100627.25;4986853;28;20047;-76
2023/08/23 06:39:41;;;;;;;0.57;0.57;;;;;;;31.73;54.34;100641.34;4984830;28;20046;-77
2023/08/23 06:42:07;;;;;;;0.82;0.70;;;;;;;31.67;52.39;100644.56;4984304;28;20069;-75
2023/08/23 06:44:32;;;;;;;0.60;0.57;;;;;;;31.15;52.63;100639.94;4984403;28;20038;-75
2023/08/23 06:46:58;;;;;;;1.30;1.17;;;;;;;31.39;53.09;100627.00;4983346;28;20125;-76
2023/08/23 06:49:24;;;;;;;1.48;1.38;;;;;;;31.59;53.80;100635.38;5003301;28;20053;-76
2023/08/23 06:51:49;;;;;;;3.08;1.23;;;;;;;30.69;53.65;100579.50;4987138;28;20652;-78
2023/08/23 06:54:15;;;;;;;1.55;1.05;;;;;;;30.70;53.19;100513.50;4984862;28;20049;-78
2023/08/23 06:56:40;;;;;;;0.95;0.85;;;;;;;31.11;51.93;100607.63;4983620;28;20057;-76
2023/08/23 06:59:06;;;;;;;2.97;2.25;;;;;;;30.73;53.16;100566.56;4982621;28;20026;-75
2023/08/23 07:01:31;;;;;;;2.63;2.42;;;;;;;31.22;53.57;100603.19;4982632;28;20541;-76
2023/08/23 07:03:57;;;;;;;0.73;0.70;;;;;;;31.20;53.76;100614.16;4985907;28;20038;-76
2023/08/23 07:06:22;;;;;;;0.30;0.30;;;;;;;31.00;53.21;100586.00;4985922;28;20038;-77
2023/08/23 07:08:47;;;;;;;1.75;1.58;;;;;;;30.92;53.57;100618.28;4985033;28;20573;-76
2023/08/23 07:11:13;;;;;;;0.63;0.63;;;;;;;30.88;53.41;100612.28;4978265;28;20080;-74
2023/08/23 07:13:39;;;;;;;1.95;1.67;;;;;;;31.03;53.18;100639.94;4991322;28;20066;-76
2023/08/23 07:16:05;;;;;;;2.35;2.15;;;;;;;31.09;53.61;100634.03;4983449;28;20050;-74
2023/08/23 07:18:30;;;;;;;1.55;1.45;;;;;;;30.45;53.97;100545.31;4982019;28;20065;-75
2023/08/23 07:20:57;;;;;;;1.90;1.80;;;;;;;30.87;52.09;100637.63;4983128;28;20536;-75
2023/08/23 07:23:23;;;;;;;1.85;1.67;;;;;;;30.82;52.81;100623.56;4981884;28;20077;-74
2023/08/23 07:25:49;;;;;;;2.88;1.55;;;;;;;30.58;52.59;100621.03;4985275;28;20042;-76
2023/08/23 07:28:15;;;;;;;1.73;1.63;;;;;;;30.86;52.85;100638.63;4975967;28;20034;-74
2023/08/23 07:30:49;;;;;;;1.70;1.60;;;;;;;30.89;52.51;100632.94;4981506;28;20042;-77
2023/08/23 07:33:15;;;;;;;1.20;1.10;;;;;;;30.62;52.16;100564.72;4985365;28;20402;-78
2023/08/23 07:35:41;;;;;;;1.80;1.70;;;;;;;30.92;51.45;100626.41;4983177;28;20038;-77
2023/08/23 07:38:06;;;;;;;0.52;0.52;;;;;;;31.00;50.60;100617.66;4981902;28;20404;-76
2023/08/23 07:40:36;;;;;;;1.55;1.15;;;;;;;30.65;50.49;100637.66;4985099;28;20491;-76
2023/08/23 07:43:01;;;;;;;1.02;1.00;;;;;;;30.35;49.73;100538.06;4980472;28;20121;-78
2023/08/23 07:45:27;;;;;;;1.00;0.77;;;;;;;30.87;49.98;100640.34;4983664;28;20054;-77
2023/08/23 07:47:52;;;;;;;0.43;0.32;;;;;;;30.85;49.56;100612.50;4985995;28;20075;-77
2023/08/23 07:50:18;;;;;;;5.47;2.40;;;;;;;30.87;49.71;100615.94;4980049;28;20085;-73
2023/08/23 07:52:43;;;;;;;4.82;2.50;;;;;;;30.71;49.71;100570.25;4967742;28;20046;-72
2023/08/23 07:55:09;;;;;;;2.55;0.88;;;;;;;31.18;50.00;100631.53;4976188;28;20392;-72
2023/08/23 07:57:34;;;;;;;1.77;1.65;;;;;;;31.13;50.30;100618.34;4975394;28;20756;-72
2023/08/23 08:00:00;;;;;;;1.83;1.33;;;;;;;30.77;50.72;100554.50;4983886;28;20080;-75
2023/08/23 08:02:25;;;;;;;3.90;2.95;;;;;;;31.41;50.38;100635.06;4984390;28;20113;-74
2023/08/23 08:04:51;;;;;;;1.13;1.02;;;;;;;31.32;49.95;100629.38;4979775;28;20154;-72
2023/08/23 08:07:16;;;;;;;1.15;1.05;;;;;;;30.91;49.15;100546.13;4982755;28;20035;-72
2023/08/23 08:09:42;;;;;;;0.65;0.60;;;;;;;31.21;49.43;100607.75;4987053;28;20042;-74
2023/08/23 08:12:07;;;;;;;0.55;0.55;;;;;;;30.97;49.88;100616.06;4978916;28;20042;-71
2023/08/23 08:14:33;;;;;;;0.60;0.60;;;;;;;30.83;49.68;100556.69;4979204;28;20042;-73
2023/08/23 08:16:59;;;;;;;2.63;0.88;;;;;;;30.77;49.61;100530.13;4984378;28;20045;-73
2023/08/23 08:19:25;;;;;;;1.30;1.05;;;;;;;31.34;50.26;100602.13;4983529;28;20058;-72
2023/08/23 08:21:52;;;;;;;2.05;1.85;;;;;;;31.49;50.08;100602.72;4982592;28;20741;-73
2023/08/23 08:24:18;;;;;;;0.95;0.85;;;;;;;31.20;50.09;100602.44;4979389;28;20058;-74
2023/08/23 08:26:43;;;;;;;0.57;0.57;;;;;;;31.43;50.23;100616.81;4985023;28;20800;-73
2023/08/23 08:29:09;;;;;;;1.05;0.98;;;;;;;31.45;49.94;100598.56;4984953;28;20039;-73
2023/08/23 08:31:34;;;;;;;2.20;1.95;;;;;;;31.61;50.08;100620.69;4979779;28;20164;-72
2023/08/23 08:34:00;;;;;;;0.98;0.88;;;;;;;31.22;50.04;100570.66;5004880;28;20042;-72
2023/08/23 08:36:25;;;;;;;2.45;2.25;;;;;;;31.11;49.89;100526.28;4984175;28;20564;-72
2023/08/23 08:38:51;;;;;;;1.38;1.27;;;;;;;31.52;49.67;100597.03;4979673;28;20447;-72
2023/08/23 08:41:17;;;;;;;0.88;0.88;;;;;;;31.70;50.56;100595.47;4979605;28;20096;-71
2023/08/23 08:43:42;;;;;;;1.50;1.17;;;;;;;31.57;50.03;100592.09;4983434;28;20038;-72
2023/08/23 08:46:09;;;;;;;2.50;2.35;;;;;;;31.31;50.41;100515.63;4983733;28;20057;-72
2023/08/23 08:48:34;;;;;;;2.50;2.20;;;;;;;31.87;50.09;100593.16;4982844;28;20082;-72
2023/08/23 08:51:02;;;;;;;1.42;1.33;;;;;;;31.79;49.40;100606.50;4981524;28;20070;-73
2023/08/23 08:53:32;;;;;;;1.40;1.30;;;;;;;31.38;49.98;100505.13;4985306;28;20030;-74
2023/08/23 08:55:59;;;;;;;0.20;0.20;;;;;;;31.92;49.31;100588.19;4985300;28;20065;-72
2023/08/23 08:58:25;;;;;;;2.47;1.85;;;;;;;32.00;48.64;100587.53;4985659;28;20051;-72
2023/08/23 09:00:53;;;;;;;1.70;1.10;;;;;;;31.59;49.50;100516.00;4985271;28;20042;-72
2023/08/23 09:03:19;;;;;;;1.67;1.55;;;;;;;31.51;48.53;100493.06;4988781;28;20057;-72
2023/08/23 09:05:48;;;;;;;1.15;0.75;;;;;;;31.59;47.74;100494.28;4983952;28;20042;-73
2023/08/23 09:08:14;;;;;;;1.90;1.75;;;;;;;32.06;48.51;100558.00;4985569;28;20038;-72
2023/08/23 09:10:40;;;;;;;3.97;3.65;;;;;;;31.90;48.99;100503.31;4985131;28;20046;-72
2023/08/23 09:13:06;;;;;;;2.53;1.55;;;;;;;32.09;48.93;100546.84;4986987;28;20479;-72
2023/08/23 09:15:31;;;;;;;1.75;1.65;;;;;;;32.29;49.22;100563.25;4987115;28;20058;-72
2023/08/23 09:17:57;;;;;;;1.67;1.55;;;;;;;32.21;48.63;100547.63;4984515;28;20108;-71
2023/08/23 09:20:23;;;;;;;2.22;2.10;;;;;;;32.42;49.11;100536.69;4986552;28;20483;-71
2023/08/23 09:22:53;;;;;;;0.50;0.50;;;;;;;32.38;48.75;100497.22;4984555;28;20052;-72
2023/08/23 09:25:19;;;;;;;0.38;0.38;;;;;;;32.72;48.01;100524.06;4985808;28;20078;-72
2023/08/23 09:27:45;;;;;;;2.90;1.58;;;;;;;32.40;47.02;100487.06;4986950;28;20038;-72
2023/08/23 09:30:12;;;;;;;0.77;0.68;;;;;;;32.68;47.45;100479.13;4986153;28;20060;-71
2023/08/23 09:32:37;;;;;;;1.10;1.00;;;;;;;32.96;47.50;100456.53;4987212;28;20038;-72
2023/08/23 09:35:14;;;;;;;0.70;0.70;;;;;;;33.60;46.84;100533.16;4984529;28;20080;-73
2023/08/23 09:37:47;;;;;;;3.17;2.97;;;;;;;33.41;46.43;100447.78;4976264;28;20085;-72
2023/08/23 09:40:20;;;;;;;1.65;1.55;;;;;;;34.03;45.66;100532.56;4986533;28;20050;-72
2023/08/23 09:42:46;;;;;;;;;;;;;;;33.85;45.37;100532.47;4983800;28;20094;-72
2023/08/23 09:45:17;;;;;;;6.65;1.65;;;;;;;34.03;44.73;100537.16;4979737;28;20353;-72
2023/08/23 09:47:48;;;;;;;1.17;1.08;;;;;;;34.46;44.25;100525.66;4987051;28;20034;-71
2023/08/23 09:50:15;;;;;;;0.75;0.75;;;;;;;34.40;44.25;100439.06;4988512;28;20048;-72
2023/08/23 09:52:44;;;;;;;1.45;1.27;;;;;;;34.74;43.47;100449.31;4984228;28;20065;-72
2023/08/23 09:55:14;;;;;;;1.13;1.02;;;;;;;35.28;43.15;100518.34;4986607;28;20062;-71
2023/08/23 09:57:40;;;;;;;1.17;0.70;;;;;;;35.19;42.98;100516.59;4986455;28;20117;-73
2023/08/23 10:00:08;;;;;;;1.25;1.10;;;;;;;35.79;42.20;100504.06;4984680;28;20049;-73
2023/08/23 10:02:34;;;;;;;5.75;2.75;;;;;;;35.97;40.82;100510.31;4979652;28;20150;-72
2023/08/23 10:05:01;;;;;;;2.50;1.42;;;;;;;36.09;40.54;100481.69;4988351;28;20522;-73
2023/08/23 10:07:26;;;;;;;2.38;1.50;;;;;;;35.81;39.41;100428.31;4986504;28;20057;-72
2023/08/23 10:09:54;;;;;;;1.83;1.73;;;;;;;35.82;39.76;100425.38;4984821;28;20081;-72
2023/08/23 10:12:21;;;;;;;1.13;1.02;;;;;;;36.28;39.95;100419.63;4984787;28;20376;-72
2023/08/23 10:14:49;;;;;;;1.25;1.15;;;;;;;36.65;38.41;100448.44;4986168;28;20026;-71
2023/08/23 10:17:18;;;;;;;1.73;1.63;;;;;;;36.30;37.86;100417.56;4986080;28;20045;-72
2023/08/23 10:19:47;;;;;;;2.33;2.08;;;;;;;36.29;38.21;100481.44;4983027;28;20071;-73
2023/08/23 10:22:13;;;;;;;1.00;0.90;;;;;;;36.24;38.79;100484.66;5005129;28;20627;-72
2023/08/23 10:24:40;;;;;;;2.15;2.05;;;;;;;35.49;38.51;100413.41;4985478;28;20074;-72
2023/08/23 10:27:07;;;;;;;2.15;1.23;;;;;;;35.70;39.85;100476.69;4980409;28;20483;-73
2023/08/23 10:29:37;;;;;;;2.70;2.50;;;;;;;35.51;39.00;100471.44;4978231;28;20056;-72
2023/08/23 10:32:10;;;;;;;1.20;1.10;;;;;;;35.45;39.77;100440.19;4985085;28;20050;-74
2023/08/23 10:34:37;;;;;;;2.78;2.47;;;;;;;35.76;39.65;100469.75;4976385;28;20047;-70
2023/08/23 10:37:21;;;;;;;1.23;1.13;;;;;;;35.45;38.98;100398.38;4995833;28;20057;-70
2023/08/23 10:39:52;;;;;;;3.70;1.95;;;;;;;35.46;39.06;100458.28;4978076;28;20185;-85
2023/08/23 10:42:19;;;;;;;0.65;0.63;;;;;;;35.66;38.77;100463.53;4978053;28;20137;-77
2023/08/23 10:44:59;;;;;;;1.35;1.25;;;;;;;35.93;38.78;100463.34;4977245;28;20080;-77
2023/08/23 10:47:25;;;;;;;1.85;1.75;;;;;;;36.88;37.79;100459.56;4974965;28;20478;-77
2023/08/23 10:49:52;;;;;;;0.65;0.57;;;;;;;37.12;37.81;100456.00;4981033;28;20042;-78
2023/08/23 10:52:20;;;;;;;2.97;1.33;;;;;;;36.76;37.92;100453.53;4981115;28;20046;-79
2023/08/23 10:54:46;;;;;;;2.50;2.00;;;;;;;36.64;37.75;100443.97;4974614;28;20050;-76
2023/08/23 10:57:12;;;;;;;1.30;1.17;;;;;;;37.53;37.24;100437.66;4973227;28;20059;-78
2023/08/23 10:59:37;;;;;;;1.45;1.20;;;;;;;37.08;37.32;100361.59;4984464;28;20114;-77
2023/08/23 11:02:03;;;;;;;1.30;1.20;;;;;;;37.57;36.93;100370.53;4978620;28;20133;-76
2023/08/23 11:04:29;;;;;;;0.85;0.85;;;;;;;37.80;36.02;100365.13;4967709;28;20145;-75
2023/08/23 11:06:56;;;;;;;2.17;1.40;;;;;;;36.82;37.51;100348.09;4974629;28;20105;-74
2023/08/23 11:09:22;;;;;;;0.75;0.68;;;;;;;36.65;38.08;100397.31;4983390;28;20561;-76
2023/08/23 11:11:48;;;;;;;1.55;1.45;;;;;;;35.46;38.37;100359.16;4981268;28;20038;-76
2023/08/23 11:14:13;;;;;;;0.55;0.45;;;;;;;36.42;38.43;100357.97;4980798;28;20042;-77
2023/08/23 11:16:39;;;;;;;4.63;2.95;;;;;;;35.90;38.46;100337.19;4979979;28;20043;-78
2023/08/23 11:19:06;;;;;;;1.02;1.00;;;;;;;36.26;38.50;100362.38;4980266;28;20046;-76